Lancaster, NH (03584)

6:49 AM EST on March 02, 2015 (GMT -0500)
RAWS LANCASTER NH US | Change Station
CLOSE
Current Station
Personal Weather Station
Location: Lancaster, NH
Elevation: 897 ft
Nearby Weather Stations

Elev 897 ft 44.53 °N, 71.57 °W | Updated 39 minutes ago

Snow
Snow
19 °F
Feels Like 19 °F
N
0
Wind Variable Wind from North
Gusts 0.0 mph

Today
High -- | Low -- °F
--% Chance of Precip.
Yesterday
High -- | Low -- °F
Precip. -- in
6:22 AM 5:35 PM
Waxing Gibbous, 91% visible
Pressure 29.87 in
Visibility 5.0 miles
Clouds Mostly Cloudy 3900 ft
Overcast 6000 ft
Windchill 19 °F
Dew Point 16 °F
Humidity 89%
Rainfall 0.00 in
Snow Depth Not available.
UV 0 out of 12
Pollen .40 out of 12
Air Quality Not available.
Flu Activity Not available.
SPECI KHIE 021136Z AUTO 23003KT 5SM -SN BR BKN039 OVC060 M07/M09 A2987 RMK AO2 P0000 T10671089

More Conditions Fewer Conditions

Pressure 29.87 in
Visibility 5.0 miles
Clouds Mostly Cloudy 3900 ft
Overcast 6000 ft
Windchill 19 °F
Dew Point 16 °F
Humidity 89%
Rainfall 0.00 in
Snow Depth Not available.
UV 0 out of 12
Pollen .40 out of 12
Air Quality Not available.
Flu Activity Not available.
SPECI KHIE 021136Z AUTO 23003KT 5SM -SN BR BKN039 OVC060 M07/M09 A2987 RMK AO2 P0000 T10671089

More Conditions Fewer Conditions

10-Day Weather Forecast

Almanac

Astronomy

Mar. 02, 2015 Rise Set
Actual Time
Civil Twilight
Nautical Twilight
Astronomical Twilight
Moon
Length of Visible Light
Length of Day
Tomorrow will be .
, % of the Moon is Illuminated

Today's Extremes

State Highs State Lows

Community

WunderPhotos

Upload Photos

1,801,757 photos uploaded!

WunderBlogs® & News

Nearby

Air Quality

  Air Quality AQ Index Pollutant
Not available.

Snow Depth

Station Depth Elevation

Earthquake Activity

City Distance Mag. Time & Date
Minimum magnitude displayed is 2.5.

Coastal Water Temperatures

Place Temperature

Nearby Weather Stations